createdAt,value
2023-03-06T00:01:56.247Z,96333.81
2023-03-06T00:04:22.983Z,96334.75
2023-03-06T00:06:49.672Z,96338.88
2023-03-06T00:09:16.366Z,96334.97
2023-03-06T00:11:42.909Z,96338.09
2023-03-06T00:14:09.500Z,96332.97
2023-03-06T00:16:36.165Z,96330.47
2023-03-06T00:19:02.836Z,96329.56
2023-03-06T00:21:29.405Z,96340.81
2023-03-06T00:23:55.931Z,96334.22
2023-03-06T00:26:22.512Z,96335.81
2023-03-06T00:28:49.593Z,96330.38
2023-03-06T00:31:16.824Z,96331.94
2023-03-06T00:33:43.642Z,96325.81
2023-03-06T00:36:10.794Z,96323.25
2023-03-06T00:38:37.624Z,96318.41
2023-03-06T00:41:11.724Z,96314.78
2023-03-06T00:43:38.809Z,96315.50
2023-03-06T00:46:07.625Z,96323.13
2023-03-06T00:48:34.729Z,96317.56
2023-03-06T00:51:01.524Z,96307.66
2023-03-06T00:53:28.195Z,96304.03
2023-03-06T00:55:54.921Z,96297.38
2023-03-06T00:58:22.101Z,96296.28
2023-03-06T01:00:48.883Z,96291.22
2023-03-06T01:03:15.619Z,96282.44
2023-03-06T01:05:42.596Z,96282.97
2023-03-06T01:08:09.157Z,96276.91
2023-03-06T01:10:40.891Z,96265.53
2023-03-06T01:13:09.077Z,96258.59
2023-03-06T01:15:36.078Z,96258.84
2023-03-06T01:18:02.865Z,96244.50
2023-03-06T01:20:29.756Z,96240.50
2023-03-06T01:22:56.874Z,96236.31
2023-03-06T01:25:24.994Z,96228.63
2023-03-06T01:27:52.000Z,96232.63
2023-03-06T01:30:19.631Z,96220.16
2023-03-06T01:32:46.757Z,96212.22
2023-03-06T01:35:14.487Z,96202.16
2023-03-06T01:37:41.396Z,96199.09
2023-03-06T01:40:10.687Z,96188.44
2023-03-06T01:42:38.053Z,96182.75
2023-03-06T01:45:11.318Z,96174.44
2023-03-06T01:47:38.047Z,96169.72
2023-03-06T01:50:09.676Z,96158.47
2023-03-06T01:52:42.380Z,96150.78
2023-03-06T01:55:13.950Z,96147.16
2023-03-06T01:57:47.000Z,96142.59
2023-03-06T02:00:17.639Z,96133.13
2023-03-06T02:02:50.091Z,96134.09
2023-03-06T02:05:16.745Z,96132.63
2023-03-06T02:07:44.735Z,96125.13
2023-03-06T02:10:14.177Z,96120.78
2023-03-06T02:12:43.762Z,96117.88
2023-03-06T02:15:15.900Z,96118.75
2023-03-06T02:17:44.306Z,96120.31
2023-03-06T02:20:32.505Z,96112.69
2023-03-06T02:23:11.164Z,96105.75
2023-03-06T02:25:42.068Z,96107.63
2023-03-06T02:28:13.501Z,96107.34
2023-03-06T02:30:42.829Z,96099.25
2023-03-06T02:33:14.809Z,96099.53
2023-03-06T02:35:47.325Z,96099.94
2023-03-06T02:38:15.620Z,96100.06
2023-03-06T02:40:44.588Z,96099.44
2023-03-06T02:43:12.458Z,96093.00
2023-03-06T02:45:45.265Z,96093.91
2023-03-06T02:48:13.503Z,96087.75
2023-03-06T02:50:41.847Z,96087.81
2023-03-06T02:53:11.077Z,96081.16
2023-03-06T02:55:38.040Z,96090.19
2023-03-06T02:58:04.938Z,96079.94
2023-03-06T03:00:32.557Z,96093.31
2023-03-06T03:03:01.121Z,96087.50
2023-03-06T03:05:27.789Z,96082.50
2023-03-06T03:07:59.972Z,96083.38
2023-03-06T03:10:27.506Z,96075.78
2023-03-06T03:12:54.174Z,96085.16
2023-03-06T03:15:21.077Z,96082.13
2023-03-06T03:17:47.635Z,96085.31
2023-03-06T03:20:18.568Z,96086.69
2023-03-06T03:22:49.877Z,96088.50
2023-03-06T03:25:17.193Z,96082.88
2023-03-06T03:27:44.580Z,96083.63
2023-03-06T03:30:12.532Z,96088.50
2023-03-06T03:32:39.410Z,96089.50
2023-03-06T03:35:08.240Z,96090.06
2023-03-06T03:37:36.500Z,96085.38
2023-03-06T03:40:06.523Z,96089.56
2023-03-06T03:42:34.509Z,96090.75
2023-03-06T03:45:01.317Z,96089.88
2023-03-06T03:47:28.123Z,96089.25
2023-03-06T03:49:54.786Z,96080.53
2023-03-06T03:52:21.713Z,96082.44
2023-03-06T03:54:48.406Z,96078.78
2023-03-06T03:57:15.085Z,96069.84
2023-03-06T03:59:47.346Z,96069.44
2023-03-06T04:02:24.237Z,96073.53
2023-03-06T04:04:58.510Z,96058.09
2023-03-06T04:07:25.506Z,96067.84
2023-03-06T04:09:52.330Z,96054.13
2023-03-06T04:12:19.126Z,96056.50
2023-03-06T04:14:46.479Z,96060.72
2023-03-06T04:17:13.364Z,96061.69
2023-03-06T04:19:39.964Z,96072.06
2023-03-06T04:22:06.596Z,96073.94
2023-03-06T04:24:35.698Z,96060.22
2023-03-06T04:27:02.780Z,96067.16
2023-03-06T04:29:29.436Z,96064.66
2023-03-06T04:31:56.735Z,96059.81
2023-03-06T04:34:23.569Z,96061.63
2023-03-06T04:36:50.826Z,96067.50
2023-03-06T04:39:18.223Z,96068.28
2023-03-06T04:41:44.843Z,96071.31
2023-03-06T04:44:11.786Z,96073.53
2023-03-06T04:46:38.712Z,96073.94
2023-03-06T04:49:05.452Z,96068.19
2023-03-06T04:51:32.069Z,96071.16
2023-03-06T04:53:58.635Z,96075.72
2023-03-06T04:56:25.266Z,96076.59
2023-03-06T04:58:51.947Z,96064.53
2023-03-06T05:01:18.677Z,96066.34
2023-03-06T05:03:45.462Z,96065.03
2023-03-06T05:06:12.460Z,96068.13
2023-03-06T05:08:39.268Z,96060.09
2023-03-06T05:11:06.027Z,96062.78
2023-03-06T05:13:32.714Z,96066.72
2023-03-06T05:16:04.456Z,96067.03
2023-03-06T05:18:32.197Z,96067.03
2023-03-06T05:21:00.032Z,96069.66
2023-03-06T05:23:28.517Z,96067.59
2023-03-06T05:25:55.281Z,96070.84
2023-03-06T05:28:22.017Z,96069.59
2023-03-06T05:30:49.094Z,96069.03
2023-03-06T05:33:15.812Z,96066.72
2023-03-06T05:35:47.542Z,96068.81
2023-03-06T05:38:15.131Z,96066.72
2023-03-06T05:40:42.864Z,96065.78
2023-03-06T05:43:10.529Z,96054.69
2023-03-06T05:45:38.511Z,96055.59
2023-03-06T05:48:05.773Z,96053.44
2023-03-06T05:50:32.723Z,96047.34
2023-03-06T05:52:59.613Z,96042.97
2023-03-06T05:55:26.195Z,96044.09
2023-03-06T05:57:54.124Z,96035.38
2023-03-06T06:00:21.468Z,96042.44
2023-03-06T06:02:48.239Z,96037.72
2023-03-06T06:05:14.873Z,96045.75
2023-03-06T06:07:41.615Z,96043.41
2023-03-06T06:10:08.970Z,96036.56
2023-03-06T06:12:35.784Z,96047.38
2023-03-06T06:15:02.695Z,96036.34
2023-03-06T06:17:29.427Z,96024.47
2023-03-06T06:19:56.085Z,96012.53
2023-03-06T06:22:22.673Z,96014.06
2023-03-06T06:24:49.458Z,96016.63
2023-03-06T06:27:16.306Z,96009.97
2023-03-06T06:29:42.891Z,96002.72
2023-03-06T06:32:09.569Z,95996.34
2023-03-06T06:34:36.143Z,95993.41
2023-03-06T06:37:02.838Z,95999.84
2023-03-06T06:39:29.853Z,95997.97
2023-03-06T06:42:10.003Z,95992.19
2023-03-06T06:44:43.552Z,95996.47
2023-03-06T06:47:26.249Z,95993.97
2023-03-06T06:49:54.923Z,96001.41
2023-03-06T06:52:23.200Z,95985.38
2023-03-06T06:54:49.921Z,95989.47
2023-03-06T06:57:16.622Z,95988.63
2023-03-06T06:59:43.279Z,95989.00
2023-03-06T07:02:14.575Z,96001.31
2023-03-06T07:04:56.135Z,96001.72
2023-03-06T07:07:27.400Z,96001.03
2023-03-06T07:09:55.428Z,95999.22
2023-03-06T07:12:22.043Z,96005.88
2023-03-06T07:14:48.649Z,95998.28
2023-03-06T07:17:15.293Z,96008.44
2023-03-06T07:19:41.849Z,96008.72
2023-03-06T07:22:08.664Z,96004.97
2023-03-06T07:24:35.439Z,96008.16
2023-03-06T07:27:02.039Z,96005.44
2023-03-06T07:29:29.380Z,96000.13
2023-03-06T07:31:56.112Z,96001.38
2023-03-06T07:34:22.985Z,96012.22
2023-03-06T07:36:50.927Z,96007.94
2023-03-06T07:39:17.533Z,96009.19
2023-03-06T07:41:44.117Z,96004.84
2023-03-06T07:44:10.964Z,96015.94
2023-03-06T07:46:37.823Z,96015.25
2023-03-06T07:49:04.492Z,96011.09
2023-03-06T07:51:31.176Z,96012.81
2023-03-06T07:53:57.841Z,96020.81
2023-03-06T07:56:24.517Z,96023.25
2023-03-06T07:58:51.126Z,96029.72
2023-03-06T08:01:20.527Z,96036.53
2023-03-06T08:03:50.170Z,96038.34
2023-03-06T08:06:22.949Z,96042.44
2023-03-06T08:08:50.841Z,96044.28
2023-03-06T08:11:20.080Z,96057.94
2023-03-06T08:13:48.867Z,96062.72
2023-03-06T08:16:17.449Z,96067.16
2023-03-06T08:18:46.253Z,96059.28
2023-03-06T08:21:15.679Z,96069.22
2023-03-06T08:23:42.599Z,96069.28
2023-03-06T08:26:13.401Z,96074.28
2023-03-06T08:28:40.597Z,96072.22
2023-03-06T08:31:23.185Z,96078.16
2023-03-06T08:33:50.390Z,96073.91
2023-03-06T08:36:17.058Z,96087.44
2023-03-06T08:38:43.773Z,96090.09
2023-03-06T08:41:10.566Z,96093.13
2023-03-06T08:43:37.287Z,96098.75
2023-03-06T08:46:04.165Z,96100.38
2023-03-06T08:48:31.067Z,96107.69
2023-03-06T08:50:58.034Z,96120.41
2023-03-06T08:53:40.331Z,96123.78
2023-03-06T08:56:15.573Z,96122.66
2023-03-06T08:58:42.366Z,96135.97
2023-03-06T09:01:22.477Z,96143.69
2023-03-06T09:03:49.799Z,96135.78
2023-03-06T09:06:17.166Z,96153.47
2023-03-06T09:08:44.699Z,96158.22
2023-03-06T09:11:12.788Z,96171.50
2023-03-06T09:13:39.693Z,96176.53
2023-03-06T09:16:07.000Z,96197.72
2023-03-06T09:18:33.697Z,96200.34
2023-03-06T09:21:00.887Z,96193.28
2023-03-06T09:23:27.716Z,96201.03
2023-03-06T09:25:55.879Z,96205.13
2023-03-06T09:28:22.899Z,96202.47
2023-03-06T09:30:50.038Z,96207.31
2023-03-06T09:33:17.150Z,96219.03
2023-03-06T09:35:53.215Z,96228.72
2023-03-06T09:38:21.950Z,96219.25
2023-03-06T09:40:57.763Z,96232.47
2023-03-06T09:43:40.440Z,96254.41
2023-03-06T09:46:19.759Z,96268.25
2023-03-06T09:49:01.693Z,96278.94
2023-03-06T09:51:38.949Z,96282.25
2023-03-06T09:54:13.445Z,96301.66
2023-03-06T09:56:47.249Z,96309.16
2023-03-06T09:59:17.458Z,96315.69
2023-03-06T10:01:53.644Z,96306.38
2023-03-06T10:04:33.281Z,96300.34
2023-03-06T10:07:06.095Z,96306.59
2023-03-06T10:09:45.346Z,96308.50
2023-03-06T10:12:11.948Z,96315.25
2023-03-06T10:14:49.126Z,96323.72
2023-03-06T10:17:22.315Z,96339.00
2023-03-06T10:19:49.456Z,96346.81
2023-03-06T10:22:30.682Z,96359.50
2023-03-06T10:25:12.439Z,96375.66
2023-03-06T10:27:47.414Z,96397.59
2023-03-06T10:30:14.559Z,96434.25
2023-03-06T10:32:55.244Z,96479.50
2023-03-06T10:35:30.529Z,96492.97
2023-03-06T10:38:32.555Z,96521.09
2023-03-06T10:41:22.516Z,96550.31
2023-03-06T10:44:01.097Z,96580.72
2023-03-06T10:46:30.613Z,96575.34
2023-03-06T10:48:59.754Z,96575.16
2023-03-06T10:51:27.623Z,96556.91
2023-03-06T10:53:58.631Z,96581.09
2023-03-06T10:56:33.028Z,96601.72
2023-03-06T10:59:07.058Z,96586.06
2023-03-06T11:01:34.683Z,96589.94
2023-03-06T11:04:27.532Z,96626.72
2023-03-06T11:07:15.926Z,96638.91
2023-03-06T11:09:58.768Z,96608.88
2023-03-06T11:12:28.694Z,96631.50
2023-03-06T11:15:09.135Z,96670.47
2023-03-06T11:17:47.574Z,96665.28
2023-03-06T11:20:21.381Z,96688.25
2023-03-06T11:22:54.928Z,96682.91
2023-03-06T11:25:26.491Z,96673.75
2023-03-06T11:28:13.736Z,96715.50
2023-03-06T11:30:46.457Z,96694.94
2023-03-06T11:33:46.457Z,96700.47
2023-03-06T11:36:36.187Z,96726.78
2023-03-06T11:39:14.528Z,96728.69
2023-03-06T11:41:54.231Z,96709.59
2023-03-06T11:44:47.827Z,96722.28
2023-03-06T11:47:28.584Z,96740.94
2023-03-06T11:50:04.316Z,96723.50
2023-03-06T11:52:46.852Z,96738.53
2023-03-06T11:55:17.485Z,96748.88
2023-03-06T11:58:00.760Z,96726.69
2023-03-06T12:00:43.460Z,96735.44
2023-03-06T12:03:31.707Z,96745.69
2023-03-06T12:06:04.693Z,96776.44
2023-03-06T12:08:46.924Z,96770.78
2023-03-06T12:11:44.248Z,96767.66
2023-03-06T12:14:29.570Z,96766.47
2023-03-06T12:17:06.979Z,96779.50
2023-03-06T12:19:46.376Z,96784.34
2023-03-06T12:22:29.114Z,96802.59
2023-03-06T12:25:18.409Z,96790.09
2023-03-06T12:28:03.340Z,96808.66
2023-03-06T12:30:57.064Z,96823.69
2023-03-06T12:33:46.906Z,96816.53
2023-03-06T12:36:18.060Z,96821.38
2023-03-06T12:39:15.873Z,96807.63
2023-03-06T12:41:59.306Z,96806.41
2023-03-06T12:44:34.958Z,96819.56
2023-03-06T12:47:04.616Z,96814.03
2023-03-06T12:49:34.630Z,96807.16
2023-03-06T12:52:04.877Z,96820.09
2023-03-06T12:54:36.398Z,96830.75
2023-03-06T12:57:03.323Z,96806.78
2023-03-06T12:59:44.468Z,96826.94
2023-03-06T13:02:29.506Z,96832.75
2023-03-06T13:05:17.369Z,96845.63
2023-03-06T13:07:52.866Z,96842.91
2023-03-06T13:10:30.381Z,96842.34
2023-03-06T13:13:01.206Z,96849.00
2023-03-06T13:15:33.833Z,96842.06
2023-03-06T13:18:01.160Z,96830.50
2023-03-06T13:20:36.993Z,96832.16
2023-03-06T13:23:38.831Z,96832.41
2023-03-06T13:26:11.867Z,96822.94
2023-03-06T13:28:50.492Z,96838.72
2023-03-06T13:31:28.460Z,96819.06
2023-03-06T13:33:58.746Z,96810.25
2023-03-06T13:36:39.424Z,96806.03
2023-03-06T13:39:10.659Z,96793.75
2023-03-06T13:42:00.576Z,96789.69
2023-03-06T13:44:27.227Z,96789.72
2023-03-06T13:47:05.120Z,96795.19
2023-03-06T13:49:33.719Z,96794.97
2023-03-06T13:52:11.116Z,96781.28
2023-03-06T13:55:00.169Z,96781.28
2023-03-06T13:57:48.606Z,96773.25
2023-03-06T14:00:27.075Z,96747.94
2023-03-06T14:03:15.554Z,96754.44
2023-03-06T14:05:50.798Z,96749.03
2023-03-06T14:08:23.740Z,96744.47
2023-03-06T14:11:17.283Z,96758.84
2023-03-06T14:13:49.817Z,96753.47
2023-03-06T14:16:32.697Z,96742.31
2023-03-06T14:19:04.728Z,96717.44
2023-03-06T14:21:39.585Z,96727.63
2023-03-06T14:24:06.408Z,96714.81
2023-03-06T14:26:40.083Z,96699.38
2023-03-06T14:29:22.352Z,96686.56
2023-03-06T14:31:51.319Z,96677.38
2023-03-06T14:34:21.181Z,96664.88
2023-03-06T14:36:50.807Z,96657.72
2023-03-06T14:39:24.452Z,96647.31
2023-03-06T14:41:51.153Z,96637.09
2023-03-06T14:44:24.116Z,96642.63
2023-03-06T14:46:56.205Z,96626.22
2023-03-06T14:49:25.407Z,96628.31
2023-03-06T14:51:54.642Z,96623.28
2023-03-06T14:54:33.703Z,96613.84
2023-03-06T14:57:16.468Z,96633.00
2023-03-06T14:59:59.160Z,96616.69
2023-03-06T15:02:32.930Z,96618.91
2023-03-06T15:05:05.507Z,96622.09
2023-03-06T15:07:33.334Z,96625.94
2023-03-06T15:10:01.060Z,96631.78
2023-03-06T15:12:29.683Z,96634.44
2023-03-06T15:14:59.017Z,96633.69
2023-03-06T15:17:30.768Z,96627.06
2023-03-06T15:20:01.042Z,96628.78
2023-03-06T15:22:35.760Z,96621.91
2023-03-06T15:25:27.396Z,96607.50
2023-03-06T15:28:00.143Z,96592.16
2023-03-06T15:30:28.862Z,96614.47
2023-03-06T15:33:24.931Z,96601.72
2023-03-06T15:36:02.266Z,96612.88
2023-03-06T15:38:42.678Z,96637.66
2023-03-06T15:41:38.334Z,96629.09
2023-03-06T15:44:15.240Z,96634.13
2023-03-06T15:46:42.236Z,96639.03
2023-03-06T15:49:17.575Z,96649.41
2023-03-06T15:51:44.653Z,96631.44
2023-03-06T15:54:12.626Z,96627.66
2023-03-06T15:56:42.926Z,96637.09
2023-03-06T15:59:33.301Z,96660.75
2023-03-06T16:02:04.034Z,96659.78
2023-03-06T16:04:30.651Z,96650.44
2023-03-06T16:06:57.384Z,96650.72
2023-03-06T16:09:24.064Z,96648.56
2023-03-06T16:11:50.781Z,96658.69
2023-03-06T16:14:21.343Z,96641.25
2023-03-06T16:16:49.347Z,96641.88
2023-03-06T16:19:28.993Z,96663.09
2023-03-06T16:21:56.676Z,96641.34
2023-03-06T16:24:24.855Z,96629.06
2023-03-06T16:26:53.096Z,96644.88
2023-03-06T16:29:22.584Z,96636.09
2023-03-06T16:31:49.626Z,96627.56
2023-03-06T16:34:17.141Z,96625.31
2023-03-06T16:36:43.707Z,96622.84
2023-03-06T16:39:18.092Z,96611.81
2023-03-06T16:41:45.987Z,96614.44
2023-03-06T16:44:13.536Z,96611.09
2023-03-06T16:46:42.831Z,96598.75
2023-03-06T16:49:35.945Z,96610.44
2023-03-06T16:52:04.638Z,96610.72
2023-03-06T16:54:31.319Z,96608.69
2023-03-06T16:56:58.121Z,96600.22
2023-03-06T16:59:25.398Z,96608.44
2023-03-06T17:01:52.553Z,96598.00
2023-03-06T17:04:19.160Z,96597.13
2023-03-06T17:06:45.852Z,96596.53
2023-03-06T17:09:14.316Z,96592.31
2023-03-06T17:11:43.121Z,96570.50
2023-03-06T17:14:09.756Z,96577.56
2023-03-06T17:16:40.280Z,96579.69
2023-03-06T17:19:07.495Z,96555.16
2023-03-06T17:21:35.511Z,96548.75
2023-03-06T17:24:03.820Z,96540.53
2023-03-06T17:26:30.841Z,96532.34
2023-03-06T17:28:57.572Z,96518.16
2023-03-06T17:31:26.797Z,96516.66
2023-03-06T17:33:59.225Z,96513.16
2023-03-06T17:36:30.877Z,96499.97
2023-03-06T17:38:59.255Z,96498.81
2023-03-06T17:41:26.417Z,96502.72
2023-03-06T17:43:55.871Z,96493.19
2023-03-06T17:46:22.600Z,96484.63
2023-03-06T17:48:49.183Z,96475.41
2023-03-06T17:51:15.783Z,96476.78
2023-03-06T17:53:42.367Z,96463.34
2023-03-06T17:56:12.592Z,96471.63
2023-03-06T17:58:39.175Z,96454.25
2023-03-06T18:01:14.527Z,96468.47
2023-03-06T18:03:45.319Z,96475.06
2023-03-06T18:06:12.356Z,96465.78
2023-03-06T18:08:39.148Z,96470.84
2023-03-06T18:11:08.013Z,96460.56
2023-03-06T18:13:36.767Z,96462.44
2023-03-06T18:16:04.391Z,96429.28
2023-03-06T18:18:31.767Z,96431.06
2023-03-06T18:21:00.870Z,96412.72
2023-03-06T18:23:27.444Z,96405.75
2023-03-06T18:26:05.684Z,96391.84
2023-03-06T18:28:32.471Z,96378.00
2023-03-06T18:30:58.989Z,96383.19
2023-03-06T18:33:25.565Z,96389.06
2023-03-06T18:35:52.316Z,96384.94
2023-03-06T18:38:18.900Z,96391.72
2023-03-06T18:40:46.244Z,96426.69
2023-03-06T18:43:12.848Z,96446.53
2023-03-06T18:45:39.476Z,96456.06
2023-03-06T18:48:06.269Z,96493.84
2023-03-06T18:50:34.659Z,96497.16
2023-03-06T18:53:01.322Z,96515.13
2023-03-06T18:55:27.984Z,96518.06
2023-03-06T18:57:54.567Z,96527.06
2023-03-06T19:00:21.527Z,96534.31
2023-03-06T19:02:48.170Z,96520.56
2023-03-06T19:05:14.803Z,96522.09
2023-03-06T19:07:41.401Z,96522.63
2023-03-06T19:10:08.624Z,96504.63
2023-03-06T19:12:35.669Z,96489.63
2023-03-06T19:15:03.556Z,96487.75
2023-03-06T19:17:31.664Z,96487.84
2023-03-06T19:19:58.241Z,96484.75
2023-03-06T19:22:24.882Z,96476.50
2023-03-06T19:24:51.549Z,96479.66
2023-03-06T19:27:18.271Z,96479.63
2023-03-06T19:29:44.921Z,96481.19
2023-03-06T19:32:11.766Z,96475.38
2023-03-06T19:34:38.553Z,96483.84
2023-03-06T19:37:05.174Z,96485.66
2023-03-06T19:39:31.776Z,96489.72
2023-03-06T19:41:58.471Z,96488.78
2023-03-06T19:44:25.198Z,96483.41
2023-03-06T19:46:51.764Z,96485.16
2023-03-06T19:49:21.807Z,96492.09
2023-03-06T19:51:48.504Z,96490.31
2023-03-06T19:54:15.138Z,96506.72
2023-03-06T19:56:41.803Z,96505.22
2023-03-06T19:59:08.364Z,96490.66
2023-03-06T20:01:35.093Z,96477.63
2023-03-06T20:04:01.993Z,96483.84
2023-03-06T20:06:31.494Z,96469.97
2023-03-06T20:08:58.578Z,96475.56
2023-03-06T20:11:27.442Z,96462.06
2023-03-06T20:13:54.329Z,96455.44
2023-03-06T20:16:21.036Z,96459.84
2023-03-06T20:18:47.718Z,96443.22
2023-03-06T20:21:15.526Z,96442.19
2023-03-06T20:23:43.484Z,96446.25
2023-03-06T20:26:14.969Z,96436.06
2023-03-06T20:28:42.558Z,96427.78
2023-03-06T20:31:16.769Z,96436.06
2023-03-06T20:33:48.668Z,96422.00
2023-03-06T20:36:16.310Z,96415.56
2023-03-06T20:38:43.604Z,96413.81
2023-03-06T20:41:18.464Z,96395.25
2023-03-06T20:43:45.249Z,96381.16
2023-03-06T20:46:13.165Z,96388.56
2023-03-06T20:48:40.982Z,96381.81
2023-03-06T20:51:18.036Z,96378.25
2023-03-06T20:53:45.960Z,96366.56
2023-03-06T20:56:14.303Z,96352.78
2023-03-06T20:58:40.993Z,96343.09
2023-03-06T21:01:07.657Z,96333.34
2023-03-06T21:03:34.228Z,96334.81
2023-03-06T21:06:00.875Z,96325.66
2023-03-06T21:08:27.452Z,96316.22
2023-03-06T21:10:54.152Z,96312.38
2023-03-06T21:13:22.091Z,96309.31
2023-03-06T21:15:48.724Z,96299.59
2023-03-06T21:18:15.357Z,96295.69
2023-03-06T21:20:42.390Z,96289.66
2023-03-06T21:23:09.354Z,96284.25
2023-03-06T21:25:35.965Z,96280.91
2023-03-06T21:28:02.714Z,96274.31
2023-03-06T21:30:29.591Z,96266.88
2023-03-06T21:32:56.349Z,96258.13
2023-03-06T21:35:22.943Z,96247.44
2023-03-06T21:37:49.574Z,96235.69
2023-03-06T21:40:16.218Z,96225.97
2023-03-06T21:42:43.081Z,96222.50
2023-03-06T21:45:10.167Z,96220.53
2023-03-06T21:47:38.844Z,96211.09
2023-03-06T21:50:11.919Z,96221.72
2023-03-06T21:52:38.583Z,96220.72
2023-03-06T21:55:05.947Z,96205.13
2023-03-06T21:57:32.612Z,96197.84
2023-03-06T21:59:59.397Z,96180.69
2023-03-06T22:02:26.060Z,96148.75
2023-03-06T22:04:53.350Z,96137.69
2023-03-06T22:07:20.301Z,96104.75
2023-03-06T22:09:47.487Z,96077.34
2023-03-06T22:12:14.524Z,96061.91
2023-03-06T22:14:43.457Z,96045.75
2023-03-06T22:17:10.018Z,96022.47
2023-03-06T22:19:36.630Z,96017.03
2023-03-06T22:22:03.955Z,96009.09
2023-03-06T22:24:34.237Z,95990.97
2023-03-06T22:27:00.866Z,95976.94
2023-03-06T22:29:27.401Z,95957.13
2023-03-06T22:31:54.057Z,95959.75
2023-03-06T22:34:20.755Z,95933.09
2023-03-06T22:36:47.310Z,95919.56
2023-03-06T22:39:14.255Z,95902.88
2023-03-06T22:41:41.335Z,95890.56
2023-03-06T22:44:07.984Z,95881.16
2023-03-06T22:46:34.765Z,95854.41
2023-03-06T22:49:02.345Z,95835.31
2023-03-06T22:51:29.706Z,95819.13
2023-03-06T22:53:56.753Z,95800.53
2023-03-06T22:56:23.776Z,95779.94
2023-03-06T22:58:50.426Z,95776.06
2023-03-06T23:01:22.659Z,95763.06
2023-03-06T23:03:51.989Z,95761.84
2023-03-06T23:06:24.736Z,95745.72
2023-03-06T23:08:54.264Z,95726.19
2023-03-06T23:11:21.906Z,95731.72
2023-03-06T23:14:07.050Z,95731.22
2023-03-06T23:16:52.318Z,95731.41
2023-03-06T23:19:38.196Z,95727.53
2023-03-06T23:22:23.316Z,95721.47
2023-03-06T23:25:09.328Z,95716.63
2023-03-06T23:27:36.466Z,95716.84
2023-03-06T23:30:05.173Z,95711.91
2023-03-06T23:32:33.357Z,95709.34
2023-03-06T23:35:00.359Z,95696.63
2023-03-06T23:37:27.317Z,95699.38
2023-03-06T23:39:55.070Z,95690.09
2023-03-06T23:42:22.688Z,95697.28
2023-03-06T23:44:49.327Z,95689.31
2023-03-06T23:47:17.260Z,95689.03
2023-03-06T23:49:43.863Z,95689.03
2023-03-06T23:52:10.405Z,95677.28
2023-03-06T23:54:37.047Z,95683.81
2023-03-06T23:57:03.839Z,95681.84
2023-03-06T23:59:30.549Z,95676.34
